Time;durP1;ratioP1;P1;durP2;ratioP2;P2;SDS_P1;SDS_P2;PMS_P1;PMS_P2;Temp;Humidity;BMP_temperature;BMP_pressure;BME280_temperature;BME280_humidity;BME280_pressure;Samples;Min_cycle;Max_cycle;Signal;HPM_P1;HPM_P2
2021/05/26 00:01:12;;;;;;;2.78;1.02;;;15.00;91.10;;;;;;4877124;29;20037;-78
2021/05/26 00:03:38;;;;;;;1.08;1.02;;;14.90;91.00;;;;;;4877042;29;20481;-79
2021/05/26 00:06:04;;;;;;;1.80;1.10;;;14.90;91.10;;;;;;4860163;29;20033;-79
2021/05/26 00:08:34;;;;;;;1.40;1.30;;;14.90;91.30;;;;;;4876919;29;20259;-79
2021/05/26 00:11:03;;;;;;;1.95;1.13;;;14.80;91.30;;;;;;4876801;29;20033;-79
2021/05/26 00:13:29;;;;;;;2.63;1.40;;;14.70;91.50;;;;;;4876856;29;20033;-79
2021/05/26 00:15:55;;;;;;;1.20;1.20;;;14.70;91.80;;;;;;4876908;29;20103;-78
2021/05/26 00:18:22;;;;;;;1.30;0.90;;;14.60;92.30;;;;;;4860026;29;20029;-79
2021/05/26 00:20:48;;;;;;;1.52;1.00;;;14.60;92.60;;;;;;4876782;29;20029;-78
2021/05/26 00:23:15;;;;;;;1.95;1.85;;;14.40;92.80;;;;;;4860244;29;20064;-79
2021/05/26 00:25:41;;;;;;;1.65;1.30;;;14.40;93.40;;;;;;4876523;29;20403;-79
2021/05/26 00:28:07;;;;;;;1.20;1.10;;;14.40;93.50;;;;;;4876877;29;20032;-78
2021/05/26 00:30:35;;;;;;;1.40;1.20;;;14.40;93.60;;;;;;4876746;29;20388;-79
2021/05/26 00:33:02;;;;;;;1.17;1.02;;;14.40;93.20;;;;;;4878158;29;20029;-78
2021/05/26 00:35:28;;;;;;;1.35;1.25;;;14.30;93.50;;;;;;4880063;29;20187;-79
2021/05/26 00:37:54;;;;;;;2.60;1.30;;;14.30;93.70;;;;;;4875446;29;20028;-79
2021/05/26 00:40:20;;;;;;;1.00;1.00;;;14.40;93.80;;;;;;4880175;29;20404;-79
2021/05/26 00:42:46;;;;;;;2.28;1.08;;;14.30;93.80;;;;;;4879988;29;20040;-79
2021/05/26 00:45:17;;;;;;;1.50;1.40;;;14.20;93.80;;;;;;4879795;29;20484;-79
2021/05/26 00:47:45;;;;;;;1.67;1.50;;;14.30;93.60;;;;;;4863162;29;20033;-79
2021/05/26 00:50:21;;;;;;;0.95;0.95;;;14.30;93.60;;;;;;4880148;29;20049;-79
2021/05/26 00:52:47;;;;;;;2.42;1.48;;;14.20;94.00;;;;;;4863047;29;20479;-79
2021/05/26 00:55:21;;;;;;;2.58;1.23;;;14.20;93.90;;;;;;4863098;29;20040;-79
2021/05/26 00:57:48;;;;;;;1.10;1.10;;;14.10;94.00;;;;;;4879894;29;20044;-79
2021/05/26 01:00:19;;;;;;;2.80;1.35;;;14.10;94.10;;;;;;4879768;29;20471;-79
2021/05/26 01:02:46;;;;;;;1.10;1.00;;;14.10;94.20;;;;;;4863072;29;20490;-79
2021/05/26 01:05:14;;;;;;;1.67;1.38;;;14.10;94.10;;;;;;4879543;29;20448;-79
2021/05/26 01:07:40;;;;;;;2.33;1.40;;;14.10;94.30;;;;;;4879379;29;20588;-79
2021/05/26 01:10:08;;;;;;;2.05;1.40;;;14.10;94.40;;;;;;4879562;29;20033;-79
2021/05/26 01:12:34;;;;;;;1.38;1.27;;;14.10;94.20;;;;;;4862745;29;20029;-79
2021/05/26 01:15:00;;;;;;;1.25;1.10;;;14.00;94.30;;;;;;4879382;29;20097;-79
2021/05/26 01:17:26;;;;;;;1.25;1.20;;;14.00;94.40;;;;;;4879464;29;20091;-79
2021/05/26 01:19:52;;;;;;;1.58;1.48;;;14.00;94.60;;;;;;4879617;29;20084;-79
2021/05/26 01:22:18;;;;;;;1.88;1.60;;;14.00;94.50;;;;;;4879273;29;20028;-79
2021/05/26 01:24:43;;;;;;;1.35;1.25;;;14.00;94.60;;;;;;4878987;29;20029;-79
2021/05/26 01:27:09;;;;;;;1.58;1.48;;;13.90;94.70;;;;;;4862380;29;20113;-79
2021/05/26 01:29:35;;;;;;;1.65;1.20;;;13.90;95.00;;;;;;4862178;29;20029;-79
2021/05/26 01:32:01;;;;;;;1.88;1.42;;;13.80;95.00;;;;;;4862314;29;20090;-79
2021/05/26 01:34:30;;;;;;;1.70;1.50;;;13.80;94.90;;;;;;4879159;29;20033;-79
2021/05/26 01:36:55;;;;;;;1.50;1.40;;;13.80;95.00;;;;;;4879022;29;20029;-79
2021/05/26 01:39:21;;;;;;;1.50;1.35;;;13.80;94.90;;;;;;4878932;29;20037;-79
2021/05/26 01:41:47;;;;;;;4.13;1.30;;;13.80;94.90;;;;;;4878891;29;20092;-79
2021/05/26 01:44:13;;;;;;;1.58;1.00;;;13.80;95.20;;;;;;4877851;29;20350;-79
2021/05/26 01:46:40;;;;;;;1.10;1.00;;;13.80;95.70;;;;;;4878820;29;20036;-79
2021/05/26 01:49:06;;;;;;;2.15;1.60;;;13.70;95.70;;;;;;4878803;29;20025;-79
2021/05/26 01:51:33;;;;;;;1.17;1.08;;;13.60;95.60;;;;;;4862011;29;20029;-79
2021/05/26 01:53:59;;;;;;;1.40;1.30;;;13.60;95.70;;;;;;4878590;29;20029;-79
2021/05/26 01:56:27;;;;;;;1.35;1.13;;;13.50;95.90;;;;;;4878429;29;20025;-79
2021/05/26 01:58:54;;;;;;;2.72;1.23;;;13.50;96.20;;;;;;4878762;29;20488;-79
2021/05/26 02:01:23;;;;;;;1.88;1.15;;;13.60;96.30;;;;;;4878519;29;20033;-79
2021/05/26 02:03:49;;;;;;;1.30;1.20;;;13.50;96.20;;;;;;4861644;29;20022;-79
2021/05/26 02:06:16;;;;;;;1.38;1.38;;;13.60;96.20;;;;;;4861875;29;20029;-79
2021/05/26 02:08:44;;;;;;;2.25;1.40;;;13.60;96.10;;;;;;4878530;29;20400;-79
2021/05/26 02:14:06;;;;;;;1.25;1.15;;;13.50;96.30;;;;;;4878653;29;20125;-79
2021/05/26 02:16:33;;;;;;;1.10;1.00;;;13.50;96.10;;;;;;4878443;29;20480;-79
2021/05/26 02:18:59;;;;;;;1.75;1.40;;;13.40;96.20;;;;;;4878225;29;20032;-79
2021/05/26 02:21:25;;;;;;;1.50;1.40;;;13.50;96.60;;;;;;4878176;29;20021;-79
2021/05/26 02:23:51;;;;;;;3.90;1.33;;;13.50;96.30;;;;;;4878191;29;20027;-79
2021/05/26 02:26:17;;;;;;;1.48;1.38;;;13.50;96.20;;;;;;4860055;29;20049;-79
2021/05/26 02:28:43;;;;;;;1.75;1.45;;;13.60;96.00;;;;;;4861434;29;20025;-79
2021/05/26 02:31:09;;;;;;;1.13;1.13;;;13.60;96.10;;;;;;4864382;29;20552;-79
2021/05/26 02:33:37;;;;;;;4.28;1.20;;;13.60;96.30;;;;;;4859442;29;20369;-79
2021/05/26 02:36:07;;;;;;;2.92;1.33;;;13.50;96.20;;;;;;4842488;29;20199;-79
2021/05/26 02:38:33;;;;;;;1.20;1.20;;;13.50;96.40;;;;;;4859489;29;20030;-79
2021/05/26 02:40:59;;;;;;;1.40;1.13;;;13.40;96.40;;;;;;4859417;29;20391;-79
2021/05/26 02:43:25;;;;;;;1.60;1.50;;;13.40;96.50;;;;;;4859391;29;20034;-80
2021/05/26 02:45:51;;;;;;;1.67;1.50;;;13.30;96.70;;;;;;4859189;29;20095;-79
2021/05/26 02:48:17;;;;;;;2.00;1.13;;;13.30;97.00;;;;;;4859273;29;20040;-79
2021/05/26 02:50:43;;;;;;;1.50;1.40;;;13.30;96.80;;;;;;4859231;29;20194;-80
2021/05/26 02:53:09;;;;;;;1.70;1.20;;;13.30;96.70;;;;;;4859164;29;20036;-78
2021/05/26 02:55:35;;;;;;;1.50;1.40;;;13.30;96.80;;;;;;4846565;29;20274;-79
2021/05/26 02:58:04;;;;;;;1.73;1.20;;;13.30;97.10;;;;;;4860776;29;20123;-79
2021/05/26 03:00:30;;;;;;;1.42;1.33;;;13.30;96.90;;;;;;4877805;29;20036;-79
2021/05/26 03:02:56;;;;;;;1.50;1.40;;;13.30;97.10;;;;;;4878105;29;20032;-78
2021/05/26 03:05:22;;;;;;;1.52;1.23;;;13.20;97.00;;;;;;4861045;29;20040;-79
2021/05/26 03:07:48;;;;;;;2.38;1.38;;;13.20;97.20;;;;;;4877304;29;20407;-79
2021/05/26 03:10:18;;;;;;;1.45;1.35;;;13.20;97.20;;;;;;4877588;29;20057;-78
2021/05/26 03:12:44;;;;;;;1.88;1.45;;;13.10;97.40;;;;;;4877562;29;20025;-79
2021/05/26 03:15:13;;;;;;;3.63;1.40;;;13.00;97.60;;;;;;4860647;29;20033;-79
2021/05/26 03:17:40;;;;;;;3.25;1.63;;;13.00;97.80;;;;;;4860457;29;20460;-79
2021/05/26 03:20:08;;;;;;;1.48;1.38;;;13.00;97.80;;;;;;4877411;29;20021;-79
2021/05/26 03:22:35;;;;;;;1.73;1.48;;;13.00;97.60;;;;;;4877434;29;20040;-78
2021/05/26 03:25:01;;;;;;;1.65;1.52;;;13.00;97.70;;;;;;4854476;29;20034;-79
2021/05/26 03:27:34;;;;;;;4.78;1.30;;;13.00;97.50;;;;;;4845089;29;20318;-79
2021/05/26 03:30:00;;;;;;;1.33;1.23;;;13.00;97.40;;;;;;4860781;29;20207;-79
2021/05/26 03:32:27;;;;;;;1.63;1.38;;;13.00;97.40;;;;;;4877322;29;20264;-79
2021/05/26 03:34:52;;;;;;;1.67;1.58;;;13.00;97.40;;;;;;4877426;29;20029;-79
2021/05/26 03:37:18;;;;;;;2.90;1.30;;;13.00;97.50;;;;;;4877258;29;20365;-79
2021/05/26 03:39:44;;;;;;;1.58;1.48;;;13.00;97.70;;;;;;4877289;29;20037;-79
2021/05/26 03:42:09;;;;;;;1.30;1.20;;;13.00;97.80;;;;;;4877327;29;20033;-79
2021/05/26 03:44:35;;;;;;;1.08;1.08;;;12.90;98.00;;;;;;4876948;29;20087;-79
2021/05/26 03:47:01;;;;;;;1.52;1.10;;;13.00;98.00;;;;;;4877172;29;20105;-79
2021/05/26 03:49:27;;;;;;;1.48;1.35;;;13.00;97.90;;;;;;4877136;29;20112;-79
2021/05/26 03:51:52;;;;;;;2.28;1.48;;;13.00;97.80;;;;;;4877009;29;20021;-79
2021/05/26 03:54:18;;;;;;;1.50;1.38;;;13.00;97.80;;;;;;4860390;29;20066;-79
2021/05/26 03:56:44;;;;;;;1.27;1.17;;;13.00;98.00;;;;;;4877197;29;20024;-80
2021/05/26 03:59:10;;;;;;;1.08;1.08;;;13.00;98.00;;;;;;4859864;29;20211;-79
2021/05/26 04:01:36;;;;;;;1.45;1.00;;;13.00;98.00;;;;;;4877329;29;20025;-79
2021/05/26 04:04:02;;;;;;;6.20;1.73;;;13.00;98.00;;;;;;4860202;29;20021;-80
2021/05/26 04:06:28;;;;;;;4.30;1.20;;;13.00;98.20;;;;;;4860138;29;20044;-79
2021/05/26 04:08:54;;;;;;;1.20;1.13;;;12.90;98.20;;;;;;4879950;29;20484;-79
2021/05/26 04:11:20;;;;;;;1.70;1.60;;;12.90;98.30;;;;;;4863674;29;20033;-79
2021/05/26 04:13:46;;;;;;;4.40;1.40;;;12.90;98.30;;;;;;4880363;29;20081;-79
2021/05/26 04:16:11;;;;;;;1.52;1.42;;;13.00;98.50;;;;;;4880215;29;20388;-79
2021/05/26 04:18:37;;;;;;;3.92;1.60;;;12.90;98.40;;;;;;4880314;29;20487;-79
2021/05/26 04:21:03;;;;;;;2.60;1.23;;;12.90;98.70;;;;;;4880493;29;20403;-80
2021/05/26 04:23:29;;;;;;;2.13;1.27;;;12.90;98.80;;;;;;4880387;29;20025;-79
2021/05/26 04:25:55;;;;;;;1.00;1.00;;;13.00;98.50;;;;;;4865869;29;20046;-79
2021/05/26 04:28:22;;;;;;;1.52;1.42;;;12.90;98.50;;;;;;4859717;29;20058;-79
2021/05/26 04:30:48;;;;;;;1.65;1.55;;;12.90;98.70;;;;;;4860647;29;20030;-79
2021/05/26 04:33:17;;;;;;;1.65;1.55;;;12.90;98.80;;;;;;4860626;29;20100;-79
2021/05/26 04:35:46;;;;;;;1.02;1.02;;;12.90;98.80;;;;;;4843736;29;20040;-79
2021/05/26 04:38:12;;;;;;;1.30;1.20;;;13.00;98.90;;;;;;4860449;29;20029;-79
2021/05/26 04:40:38;;;;;;;1.58;1.45;;;13.00;99.10;;;;;;4859255;29;20038;-79
2021/05/26 04:43:04;;;;;;;1.50;1.40;;;13.00;98.80;;;;;;4860076;29;20477;-79
2021/05/26 04:45:30;;;;;;;3.00;1.50;;;13.00;99.10;;;;;;4843542;29;20221;-79
2021/05/26 04:47:56;;;;;;;1.42;1.33;;;13.10;99.00;;;;;;4860515;29;20022;-79
2021/05/26 04:50:22;;;;;;;1.30;1.20;;;13.10;98.80;;;;;;4861256;29;20120;-79
2021/05/26 04:52:47;;;;;;;2.15;1.30;;;13.20;98.90;;;;;;4844778;29;20033;-79
2021/05/26 04:55:13;;;;;;;3.10;1.25;;;13.20;98.90;;;;;;4861032;29;20087;-79
2021/05/26 04:57:39;;;;;;;1.35;1.25;;;13.20;99.00;;;;;;4861028;29;20026;-79
2021/05/26 05:00:05;;;;;;;1.58;1.48;;;13.30;98.80;;;;;;4860598;29;20033;-79
2021/05/26 05:02:31;;;;;;;1.30;1.20;;;13.30;98.90;;;;;;4859976;29;20034;-79
2021/05/26 05:04:57;;;;;;;1.38;1.27;;;13.40;98.80;;;;;;4859511;29;20399;-79
2021/05/26 05:07:23;;;;;;;1.33;1.23;;;13.40;98.70;;;;;;4859377;29;20032;-79
2021/05/26 05:09:49;;;;;;;1.00;0.98;;;13.50;98.70;;;;;;4859909;29;20029;-79
2021/05/26 05:12:14;;;;;;;1.30;1.20;;;13.50;98.70;;;;;;4860579;29;20049;-79
2021/05/26 05:14:40;;;;;;;2.83;1.27;;;13.60;98.70;;;;;;4856861;29;20041;-79
2021/05/26 05:17:06;;;;;;;4.65;1.75;;;13.60;98.60;;;;;;4854382;29;20033;-79
2021/05/26 05:19:31;;;;;;;3.47;1.40;;;13.60;98.60;;;;;;4854255;29;20514;-79
2021/05/26 05:21:57;;;;;;;1.23;1.13;;;13.70;98.70;;;;;;4859431;29;20036;-79
2021/05/26 05:24:24;;;;;;;1.75;1.30;;;13.80;98.70;;;;;;4852210;29;20170;-79
2021/05/26 05:26:50;;;;;;;1.50;1.40;;;13.80;98.70;;;;;;4849579;29;20140;-79
2021/05/26 05:29:15;;;;;;;1.45;1.35;;;13.80;98.40;;;;;;4878896;29;20604;-79
2021/05/26 05:31:41;;;;;;;2.00;1.23;;;13.90;98.50;;;;;;4862330;29;20025;-80
2021/05/26 05:34:07;;;;;;;1.80;1.60;;;14.00;98.40;;;;;;4879135;29;20499;-79
2021/05/26 05:36:32;;;;;;;4.25;1.38;;;14.00;98.20;;;;;;4879006;29;20065;-79
2021/05/26 05:38:58;;;;;;;2.58;1.40;;;14.10;98.30;;;;;;4878951;29;20036;-79
2021/05/26 05:41:24;;;;;;;2.80;1.55;;;14.20;98.40;;;;;;4879131;29;20433;-79
2021/05/26 05:43:50;;;;;;;6.15;1.33;;;14.30;98.20;;;;;;4878856;29;20025;-79
2021/05/26 05:46:15;;;;;;;1.38;1.27;;;14.30;98.50;;;;;;4861863;29;20480;-79
2021/05/26 05:48:41;;;;;;;1.65;1.55;;;14.40;99.00;;;;;;4878884;29;20135;-79
2021/05/26 05:51:07;;;;;;;1.30;1.20;;;14.50;98.70;;;;;;4878915;29;20044;-79
2021/05/26 05:53:32;;;;;;;2.28;1.35;;;14.50;99.20;;;;;;4878748;29;20032;-79
2021/05/26 05:56:01;;;;;;;2.28;1.90;;;14.60;99.10;;;;;;4878641;29;20025;-79
2021/05/26 05:58:27;;;;;;;1.63;1.52;;;14.70;99.50;;;;;;4878934;29;20037;-79
2021/05/26 06:00:53;;;;;;;3.35;1.20;;;14.80;99.40;;;;;;4878640;29;20032;-79
2021/05/26 06:03:19;;;;;;;1.08;1.00;;;14.90;98.90;;;;;;4878726;29;20044;-79
2021/05/26 06:05:45;;;;;;;1.40;1.20;;;15.00;99.20;;;;;;4878470;29;20033;-80
2021/05/26 06:08:11;;;;;;;1.27;0.93;;;15.10;99.20;;;;;;4878581;29;20031;-79
2021/05/26 06:10:36;;;;;;;0.90;0.90;;;15.10;98.70;;;;;;4878419;29;20539;-79
2021/05/26 06:13:07;;;;;;;1.05;1.00;;;15.20;98.90;;;;;;4878494;29;20101;-79
2021/05/26 06:15:36;;;;;;;1.20;1.13;;;15.20;99.00;;;;;;4878305;29;20120;-79
2021/05/26 06:18:02;;;;;;;1.48;1.02;;;15.30;98.80;;;;;;4878333;29;20017;-79
2021/05/26 06:20:28;;;;;;;2.72;1.20;;;15.40;98.50;;;;;;4878372;29;20037;-79
2021/05/26 06:22:53;;;;;;;1.00;0.93;;;15.50;98.20;;;;;;4878137;29;20101;-79
2021/05/26 06:25:20;;;;;;;0.90;0.90;;;15.50;98.00;;;;;;4878100;29;20033;-79
2021/05/26 06:27:45;;;;;;;1.02;0.90;;;15.60;97.90;;;;;;4861296;29;20461;-79
2021/05/26 06:30:11;;;;;;;0.98;0.98;;;15.60;98.10;;;;;;4874942;29;20033;-79
2021/05/26 06:32:38;;;;;;;1.27;1.20;;;15.70;98.30;;;;;;4878959;29;20029;-79
2021/05/26 06:35:05;;;;;;;1.30;1.20;;;15.80;98.20;;;;;;4861879;29;20035;-76
2021/05/26 06:37:30;;;;;;;1.58;1.48;;;15.80;97.50;;;;;;4862178;29;20025;-76
2021/05/26 06:39:56;;;;;;;2.97;1.25;;;15.80;97.80;;;;;;4879019;29;20100;-75
2021/05/26 06:42:22;;;;;;;1.45;1.38;;;15.80;97.00;;;;;;4862374;29;20033;-75
2021/05/26 06:44:48;;;;;;;2.22;1.30;;;15.90;97.20;;;;;;4878293;29;20483;-76
2021/05/26 06:47:14;;;;;;;1.23;1.13;;;15.90;97.70;;;;;;4878181;29;20021;-75
2021/05/26 06:49:39;;;;;;;3.85;1.25;;;16.00;97.20;;;;;;4877761;29;20073;-75
2021/05/26 06:52:05;;;;;;;1.50;1.40;;;15.90;96.60;;;;;;4860795;29;20050;-76
2021/05/26 06:54:31;;;;;;;1.85;1.40;;;15.90;96.60;;;;;;4860759;29;20057;-75
2021/05/26 06:56:57;;;;;;;3.78;1.58;;;16.00;97.00;;;;;;4877433;29;20037;-76
2021/05/26 06:59:22;;;;;;;1.92;1.55;;;16.10;97.90;;;;;;4861045;29;20080;-76
2021/05/26 07:01:48;;;;;;;1.40;1.30;;;16.10;98.40;;;;;;4860820;29;20039;-76
2021/05/26 07:04:14;;;;;;;1.33;1.20;;;16.20;98.20;;;;;;4860460;29;20044;-76
2021/05/26 07:06:40;;;;;;;2.72;1.40;;;16.20;97.10;;;;;;4877510;29;20043;-76
2021/05/26 07:09:06;;;;;;;1.48;1.20;;;16.20;97.40;;;;;;4877403;29;20519;-76
2021/05/26 07:11:32;;;;;;;3.28;1.25;;;16.30;97.70;;;;;;4877836;29;20025;-76
2021/05/26 07:13:58;;;;;;;2.47;1.27;;;16.30;97.20;;;;;;4878452;29;20100;-76
2021/05/26 07:16:23;;;;;;;1.35;1.25;;;16.30;95.70;;;;;;4861138;29;20421;-75
2021/05/26 07:18:49;;;;;;;1.88;1.20;;;16.30;96.20;;;;;;4876728;29;20029;-79
2021/05/26 07:21:16;;;;;;;1.33;1.23;;;16.40;97.10;;;;;;4875618;29;20510;-79
2021/05/26 07:23:42;;;;;;;1.50;1.40;;;16.50;96.70;;;;;;4875645;29;20029;-79
2021/05/26 07:26:08;;;;;;;2.25;1.40;;;16.50;96.50;;;;;;4867253;29;20053;-79
2021/05/26 07:28:36;;;;;;;1.60;1.45;;;16.50;97.40;;;;;;4875551;29;20036;-79
2021/05/26 07:31:02;;;;;;;1.60;1.30;;;16.60;97.20;;;;;;4875972;29;20092;-79
2021/05/26 07:33:28;;;;;;;3.45;1.42;;;16.50;96.00;;;;;;4877334;29;20057;-79
2021/05/26 07:35:54;;;;;;;1.77;1.67;;;16.50;96.20;;;;;;4860338;29;20104;-79
2021/05/26 07:38:19;;;;;;;2.58;1.33;;;16.60;95.80;;;;;;4877325;29;20033;-79
2021/05/26 07:40:45;;;;;;;2.05;1.45;;;16.70;95.30;;;;;;4877101;29;20038;-79
2021/05/26 07:43:11;;;;;;;1.60;1.50;;;16.70;95.70;;;;;;4879075;29;20032;-79
2021/05/26 07:45:36;;;;;;;1.55;1.45;;;16.80;95.30;;;;;;4880911;29;20053;-80
2021/05/26 07:48:02;;;;;;;3.20;1.52;;;16.80;96.00;;;;;;4864195;29;20090;-79
2021/05/26 07:50:34;;;;;;;1.13;1.13;;;16.80;96.70;;;;;;4881010;29;20029;-79
2021/05/26 07:53:00;;;;;;;1.95;1.38;;;16.90;96.50;;;;;;4880978;29;20113;-79
2021/05/26 07:55:26;;;;;;;4.30;1.58;;;16.90;95.10;;;;;;4863859;29;20025;-79
2021/05/26 07:57:52;;;;;;;1.63;1.52;;;17.00;94.40;;;;;;4864253;29;20041;-79
2021/05/26 08:00:18;;;;;;;2.60;1.42;;;17.00;94.60;;;;;;4880671;29;20040;-79
2021/05/26 08:02:44;;;;;;;1.92;1.70;;;17.10;95.00;;;;;;4880589;29;20049;-79
2021/05/26 08:05:11;;;;;;;2.08;1.20;;;17.10;94.20;;;;;;4880656;29;20488;-79
2021/05/26 08:07:36;;;;;;;1.88;1.50;;;17.10;94.60;;;;;;4880680;29;20466;-79
2021/05/26 08:10:05;;;;;;;3.10;1.45;;;17.20;95.70;;;;;;4880733;29;20539;-79
2021/05/26 08:12:30;;;;;;;1.65;1.55;;;17.20;95.70;;;;;;4863890;29;20419;-79
2021/05/26 08:14:56;;;;;;;1.95;1.50;;;17.20;95.40;;;;;;4880461;29;20029;-79
2021/05/26 08:17:22;;;;;;;1.52;1.15;;;17.20;95.20;;;;;;4880382;29;20029;-77
2021/05/26 08:19:48;;;;;;;6.47;2.08;;;17.30;95.60;;;;;;4871138;29;20033;-78
2021/05/26 08:22:14;;;;;;;1.77;1.40;;;17.40;94.40;;;;;;4840659;29;20454;-79
2021/05/26 08:24:39;;;;;;;1.60;1.30;;;17.50;94.00;;;;;;4841908;29;20037;-78
2021/05/26 08:27:05;;;;;;;1.83;1.73;;;17.50;94.70;;;;;;4875675;29;20108;-78
2021/05/26 08:29:34;;;;;;;1.40;1.30;;;17.60;96.20;;;;;;4859626;29;20368;-78
2021/05/26 08:32:00;;;;;;;7.05;1.67;;;17.70;95.00;;;;;;4866835;29;20021;-78
2021/05/26 08:34:26;;;;;;;4.70;1.88;;;17.70;95.80;;;;;;4876050;29;20033;-78
2021/05/26 08:36:52;;;;;;;4.20;1.50;;;17.70;93.80;;;;;;4876345;29;20041;-77
2021/05/26 08:39:18;;;;;;;1.63;1.52;;;17.80;95.70;;;;;;4873188;29;20041;-78
2021/05/26 08:41:45;;;;;;;2.08;1.67;;;17.80;95.00;;;;;;4858969;29;20384;-77
2021/05/26 08:44:13;;;;;;;2.03;1.80;;;17.80;94.60;;;;;;4871364;29;20060;-77
2021/05/26 08:46:40;;;;;;;1.98;1.85;;;17.90;94.20;;;;;;4875056;29;20028;-77
2021/05/26 08:49:06;;;;;;;2.33;2.13;;;18.00;93.70;;;;;;4858743;29;20032;-78
2021/05/26 08:51:32;;;;;;;2.88;2.08;;;18.00;93.40;;;;;;4876302;29;20025;-77
2021/05/26 08:54:02;;;;;;;3.00;1.60;;;18.00;93.60;;;;;;4875000;29;20121;-77
2021/05/26 08:56:28;;;;;;;3.05;1.80;;;18.00;93.70;;;;;;4872138;29;20055;-77
2021/05/26 08:58:55;;;;;;;3.17;1.65;;;18.10;94.20;;;;;;4875895;29;20491;-77
2021/05/26 09:01:21;;;;;;;2.72;1.75;;;18.10;94.00;;;;;;4875256;29;20039;-77
2021/05/26 09:03:50;;;;;;;3.50;1.70;;;18.20;94.20;;;;;;4875467;29;20029;-76
2021/05/26 09:06:16;;;;;;;2.53;1.95;;;18.20;94.00;;;;;;4876204;29;20037;-77
2021/05/26 09:08:46;;;;;;;4.10;2.17;;;18.30;94.10;;;;;;4875029;29;20025;-78
2021/05/26 09:11:12;;;;;;;3.70;2.40;;;18.40;93.60;;;;;;4856717;29;20289;-79
2021/05/26 09:13:43;;;;;;;2.78;2.08;;;18.50;93.10;;;;;;4859852;29;20802;-77
2021/05/26 09:16:28;;;;;;;2.70;2.50;;;18.50;93.10;;;;;;4858402;29;20476;-77
2021/05/26 09:18:58;;;;;;;7.22;2.60;;;18.50;92.30;;;;;;4859049;29;20327;-78
2021/05/26 09:21:52;;;;;;;2.17;2.00;;;18.40;92.00;;;;;;4875255;29;20029;-78
2021/05/26 09:24:21;;;;;;;3.83;2.70;;;18.40;93.20;;;;;;4858945;29;20112;-78
2021/05/26 09:27:01;;;;;;;5.90;2.50;;;18.60;93.00;;;;;;4854946;29;20056;-78
2021/05/26 09:29:29;;;;;;;2.75;2.55;;;18.60;92.60;;;;;;4845397;29;20761;-77
2021/05/26 09:32:09;;;;;;;5.20;2.17;;;18.60;92.30;;;;;;4874382;29;20112;-78
2021/05/26 09:34:36;;;;;;;2.42;2.33;;;18.70;92.80;;;;;;4853677;29;20641;-78
2021/05/26 09:37:06;;;;;;;3.58;2.05;;;18.70;93.10;;;;;;4870196;29;20063;-78
2021/05/26 09:39:57;;;;;;;2.90;1.98;;;18.90;94.20;;;;;;4858319;29;20040;-78
2021/05/26 09:42:36;;;;;;;2.60;2.40;;;19.00;93.30;;;;;;4858559;29;20583;-77
2021/05/26 09:45:16;;;;;;;6.13;2.10;;;19.00;91.10;;;;;;4871770;29;20112;-78
2021/05/26 09:47:51;;;;;;;5.13;2.10;;;19.10;91.00;;;;;;4875473;29;20033;-78
2021/05/26 09:50:30;;;;;;;2.95;1.92;;;19.20;90.90;;;;;;4875702;29;20029;-77
2021/05/26 09:53:15;;;;;;;2.00;1.90;;;19.20;91.10;;;;;;4858659;29;20052;-77
2021/05/26 09:55:45;;;;;;;2.28;1.90;;;19.30;91.50;;;;;;4858781;29;20037;-75
2021/05/26 09:58:13;;;;;;;2.33;1.60;;;19.40;91.70;;;;;;4874539;29;20062;-75
2021/05/26 10:00:41;;;;;;;2.20;1.60;;;19.30;90.50;;;;;;4875352;29;20518;-75
2021/05/26 10:03:07;;;;;;;3.17;2.35;;;19.40;91.40;;;;;;4868706;29;20399;-75
2021/05/26 10:05:34;;;;;;;2.53;1.77;;;19.50;92.20;;;;;;4868647;29;20444;-75
2021/05/26 10:08:01;;;;;;;4.95;2.00;;;19.50;90.00;;;;;;4874142;29;20368;-75
2021/05/26 10:10:31;;;;;;;2.85;1.55;;;19.50;87.50;;;;;;4854012;29;20030;-76
2021/05/26 10:13:00;;;;;;;3.75;1.80;;;19.50;90.70;;;;;;4840080;29;20695;-74
2021/05/26 10:15:27;;;;;;;2.45;1.70;;;19.50;90.60;;;;;;4862215;29;20129;-75
2021/05/26 10:17:58;;;;;;;1.42;1.33;;;19.60;90.70;;;;;;4863779;29;20488;-75
2021/05/26 10:20:29;;;;;;;2.05;1.30;;;19.80;92.10;;;;;;4848175;29;20388;-77
2021/05/26 10:22:57;;;;;;;3.55;1.70;;;20.00;91.80;;;;;;4866309;29;20025;-76
2021/05/26 10:25:23;;;;;;;2.03;1.38;;;20.10;88.70;;;;;;4865260;29;20033;-76
2021/05/26 10:27:51;;;;;;;4.50;1.42;;;20.10;91.30;;;;;;4871765;29;20120;-75
2021/05/26 10:30:19;;;;;;;1.30;1.20;;;20.00;90.20;;;;;;4874288;29;20454;-76
2021/05/26 10:32:59;;;;;;;4.13;1.50;;;20.00;90.70;;;;;;4857917;29;20029;-75
2021/05/26 10:36:00;;;;;;;5.80;1.70;;;20.00;90.40;;;;;;4857925;29;20025;-75
2021/05/26 10:38:25;;;;;;;3.53;1.65;;;19.90;90.50;;;;;;4867912;29;20043;-76
2021/05/26 10:40:58;;;;;;;3.17;1.42;;;20.00;90.80;;;;;;4873489;29;20116;-75
2021/05/26 10:43:25;;;;;;;2.53;1.60;;;20.30;92.10;;;;;;4873887;29;20116;-75
2021/05/26 10:45:53;;;;;;;2.25;1.50;;;20.70;91.20;;;;;;4870870;29;20034;-78
2021/05/26 10:48:38;;;;;;;2.92;1.70;;;20.80;92.10;;;;;;4855474;29;20069;-76
2021/05/26 10:51:04;;;;;;;3.95;1.90;;;20.90;87.10;;;;;;4835324;29;20507;-76
2021/05/26 10:53:45;;;;;;;4.45;1.83;;;21.10;90.10;;;;;;4854800;29;20025;-77
2021/05/26 10:56:29;;;;;;;4.40;2.10;;;21.20;88.80;;;;;;4866427;29;20090;-76
2021/05/26 10:59:12;;;;;;;1.80;1.42;;;21.40;90.00;;;;;;4873024;29;20029;-76
2021/05/26 11:02:12;;;;;;;2.35;2.00;;;21.40;89.10;;;;;;4873596;29;20544;-76
2021/05/26 11:04:39;;;;;;;5.78;1.77;;;21.50;84.80;;;;;;4873154;29;20029;-78
2021/05/26 11:07:18;;;;;;;5.25;1.70;;;21.00;84.10;;;;;;4873830;29;20215;-78
2021/05/26 11:10:00;;;;;;;7.53;2.15;;;20.90;89.30;;;;;;4873758;29;20124;-78
2021/05/26 11:12:26;;;;;;;3.25;1.80;;;21.20;90.70;;;;;;4856710;29;20399;-76
2021/05/26 11:14:56;;;;;;;2.05;1.65;;;21.50;90.00;;;;;;4873628;29;20018;-77
2021/05/26 11:17:24;;;;;;;2.58;1.80;;;21.60;89.10;;;;;;4872848;29;20036;-76
2021/05/26 11:19:51;;;;;;;3.40;1.92;;;21.80;89.20;;;;;;4873173;29;20021;-76
2021/05/26 11:22:23;;;;;;;2.10;1.92;;;21.70;86.70;;;;;;4854024;29;20033;-76
2021/05/26 11:24:50;;;;;;;3.65;2.42;;;21.70;88.30;;;;;;4849433;29;20033;-76
2021/05/26 11:27:20;;;;;;;2.88;2.13;;;21.60;83.60;;;;;;4854091;29;20053;-77
2021/05/26 11:29:51;;;;;;;7.38;2.60;;;21.60;82.50;;;;;;4838353;29;20639;-75
2021/05/26 11:32:21;;;;;;;3.70;2.33;;;21.70;81.70;;;;;;4854588;29;20096;-75
2021/05/26 11:34:55;;;;;;;4.85;2.85;;;21.60;82.90;;;;;;4854054;29;20124;-75
2021/05/26 11:37:37;;;;;;;2.75;2.55;;;21.50;84.10;;;;;;4853965;29;20045;-76
2021/05/26 11:40:26;;;;;;;3.42;2.67;;;21.50;83.80;;;;;;4854184;29;20022;-75
2021/05/26 11:42:53;;;;;;;3.65;2.42;;;21.70;83.30;;;;;;4854944;29;20034;-75
2021/05/26 11:45:21;;;;;;;3.30;2.80;;;21.60;80.70;;;;;;4853962;29;20025;-76
2021/05/26 11:47:49;;;;;;;6.95;2.70;;;21.50;80.10;;;;;;4847593;29;20201;-78
2021/05/26 11:50:15;;;;;;;3.30;2.70;;;21.40;82.10;;;;;;4858142;29;20115;-75
2021/05/26 11:52:49;;;;;;;5.68;2.28;;;21.40;82.30;;;;;;4880931;29;20161;-75
2021/05/26 11:55:17;;;;;;;5.97;2.45;;;21.40;84.00;;;;;;4872600;29;20510;-76
2021/05/26 11:57:44;;;;;;;4.30;2.88;;;21.70;84.60;;;;;;4873047;29;20064;-75
2021/05/26 12:00:21;;;;;;;7.40;2.92;;;22.10;82.30;;;;;;4855904;29;20028;-75
2021/05/26 12:02:56;;;;;;;2.75;2.55;;;22.30;77.20;;;;;;4890169;29;20123;-77
2021/05/26 12:05:41;;;;;;;4.05;2.92;;;22.50;79.30;;;;;;4891125;29;20053;-78
2021/05/26 12:08:20;;;;;;;3.83;2.60;;;22.60;75.20;;;;;;4891077;29;20103;-77
2021/05/26 12:10:57;;;;;;;5.88;2.50;;;22.80;77.40;;;;;;4891602;29;20033;-78
2021/05/26 12:13:27;;;;;;;6.50;2.85;;;22.90;77.70;;;;;;4891502;29;20032;-78
2021/05/26 12:15:56;;;;;;;4.45;2.53;;;22.80;73.50;;;;;;4891559;29;20020;-78
2021/05/26 12:18:25;;;;;;;3.90;3.45;;;23.00;76.40;;;;;;4891951;29;20029;-78
2021/05/26 12:20:52;;;;;;;4.53;3.15;;;23.10;72.00;;;;;;4891370;29;20076;-78
2021/05/26 12:23:31;;;;;;;3.35;3.05;;;23.20;76.20;;;;;;4876073;29;20033;-78
2021/05/26 12:25:57;;;;;;;2.20;2.10;;;23.50;74.30;;;;;;4862748;29;20017;-78
2021/05/26 12:28:23;;;;;;;3.90;2.60;;;23.80;74.20;;;;;;4861851;29;20040;-78
2021/05/26 12:30:51;;;;;;;5.15;3.10;;;24.00;75.10;;;;;;4858350;29;20017;-78
2021/05/26 12:33:22;;;;;;;3.28;2.78;;;24.00;72.20;;;;;;4860077;29;20080;-78
2021/05/26 12:36:05;;;;;;;3.22;2.83;;;24.20;73.10;;;;;;4868335;29;20025;-78
2021/05/26 12:38:40;;;;;;;3.90;3.47;;;24.00;71.80;;;;;;4875562;29;20061;-78
2021/05/26 12:41:28;;;;;;;3.80;3.50;;;23.50;70.00;;;;;;4875993;29;20093;-78
2021/05/26 12:43:55;;;;;;;8.48;3.35;;;23.40;70.80;;;;;;4858876;29;20033;-78
2021/05/26 12:46:47;;;;;;;4.90;3.53;;;23.60;72.70;;;;;;4858920;29;20459;-77
2021/05/26 12:51:59;;;;;;;3.72;3.30;;;24.00;68.40;;;;;;4875601;29;20025;-78
2021/05/26 12:54:25;;;;;;;3.38;3.08;;;24.20;69.80;;;;;;4858276;29;20389;-77
2021/05/26 12:57:08;;;;;;;2.63;2.40;;;24.40;71.10;;;;;;4875311;29;20028;-77
2021/05/26 12:59:39;;;;;;;5.30;3.30;;;24.50;72.10;;;;;;4875226;29;20025;-77